Terminal Aerodrome Forecast
Issued by NWS Dodge City, KS

Home | Current Version | Previous Version | Graphics & Text | Print | Product List | Glossary Off
Versions: 1 2 3 4 5 6 7 8 9 10 11 12 13 14 15 16 17 18 19 20 21 22 23 24

000
FTUS43 KDDC 212320
TAFDDC
TAF
KDDC 212320Z 2200/2224 17015G25KT P6SM OVC150
      TEMPO 2200/2202 VRB30G40KT 3SM -TSRA BKN050CB
     FM220200 19015G25KT P6SM BKN150
     FM220600 20013KT P6SM SCT150=

USA.gov is the U.S. government's official web portal to all federal, state and local government web resources and services.